createdAt,value
2023-06-11T00:01:53.818Z,14.01
2023-06-11T00:04:26.583Z,13.93
2023-06-11T00:07:02.155Z,13.70
2023-06-11T00:09:29.191Z,13.89
2023-06-11T00:11:55.959Z,13.58
2023-06-11T00:14:23.303Z,13.51
2023-06-11T00:16:50.306Z,13.60
2023-06-11T00:19:18.414Z,13.72
2023-06-11T00:21:45.272Z,13.90
2023-06-11T00:24:15.591Z,13.81
2023-06-11T00:26:42.622Z,13.91
2023-06-11T00:29:09.533Z,14.02
2023-06-11T00:31:36.252Z,14.03
2023-06-11T00:34:03.086Z,13.85
2023-06-11T00:36:30.829Z,13.74
2023-06-11T00:38:57.774Z,13.80
2023-06-11T00:41:31.039Z,13.82
2023-06-11T00:43:58.282Z,13.63
2023-06-11T00:46:25.752Z,13.67
2023-06-11T00:48:52.693Z,13.71
2023-06-11T00:51:19.424Z,13.66
2023-06-11T00:53:46.164Z,13.58
2023-06-11T00:56:12.825Z,13.30
2023-06-11T00:58:41.039Z,13.33
2023-06-11T01:01:07.788Z,13.40
2023-06-11T01:03:35.955Z,13.44
2023-06-11T01:06:12.839Z,13.51
2023-06-11T01:08:40.736Z,13.56
2023-06-11T01:11:14.920Z,13.81
2023-06-11T01:13:41.743Z,13.68
2023-06-11T01:16:13.124Z,13.52
2023-06-11T01:18:45.939Z,13.62
2023-06-11T01:21:18.383Z,13.87
2023-06-11T01:23:52.722Z,13.70
2023-06-11T01:26:40.987Z,13.86
2023-06-11T01:29:09.394Z,13.65
2023-06-11T01:31:38.790Z,13.47
2023-06-11T01:34:05.643Z,13.57
2023-06-11T01:36:35.753Z,13.63
2023-06-11T01:39:03.156Z,13.50
2023-06-11T01:41:29.888Z,13.55
2023-06-11T01:43:56.724Z,13.59
2023-06-11T01:46:23.649Z,13.68
2023-06-11T01:48:50.600Z,13.54
2023-06-11T01:51:17.311Z,13.60
2023-06-11T01:53:44.275Z,13.76
2023-06-11T01:56:11.279Z,13.65
2023-06-11T01:58:38.479Z,13.66
2023-06-11T02:01:05.281Z,13.52
2023-06-11T02:03:32.255Z,13.57
2023-06-11T02:05:59.133Z,13.46
2023-06-11T02:08:27.612Z,13.52
2023-06-11T02:10:54.858Z,13.62
2023-06-11T02:13:21.658Z,13.57
2023-06-11T02:15:48.434Z,13.56
2023-06-11T02:18:15.436Z,13.55
2023-06-11T02:20:42.126Z,13.54
2023-06-11T02:23:08.997Z,13.55
2023-06-11T02:25:35.829Z,13.50
2023-06-11T02:28:03.341Z,13.68
2023-06-11T02:30:29.982Z,13.59
2023-06-11T02:32:56.963Z,13.21
2023-06-11T02:35:23.681Z,13.33
2023-06-11T02:37:50.564Z,13.55
2023-06-11T02:40:17.312Z,13.68
2023-06-11T02:42:44.044Z,13.57
2023-06-11T02:45:11.449Z,13.68
2023-06-11T02:47:38.412Z,13.55
2023-06-11T02:50:05.785Z,13.88
2023-06-11T02:52:32.628Z,13.72
2023-06-11T02:54:59.335Z,13.49
2023-06-11T02:57:26.206Z,13.64
2023-06-11T02:59:53.023Z,13.75
2023-06-11T03:02:19.929Z,13.72
2023-06-11T03:04:46.641Z,13.87
2023-06-11T03:07:13.545Z,13.73
2023-06-11T03:09:40.455Z,13.70
2023-06-11T03:12:08.296Z,13.77
2023-06-11T03:14:35.036Z,13.32
2023-06-11T03:17:02.141Z,13.29
2023-06-11T03:19:28.837Z,13.57
2023-06-11T03:21:55.890Z,13.70
2023-06-11T03:24:22.829Z,13.78
2023-06-11T03:26:49.557Z,13.86
2023-06-11T03:29:16.337Z,13.83
2023-06-11T03:31:43.141Z,13.15
2023-06-11T03:34:09.916Z,13.24
2023-06-11T03:36:37.585Z,13.28
2023-06-11T03:39:04.498Z,13.44
2023-06-11T03:41:31.490Z,13.64
2023-06-11T03:43:58.279Z,13.88
2023-06-11T03:46:25.156Z,14.04
2023-06-11T03:48:51.821Z,14.08
2023-06-11T03:51:18.526Z,14.10
2023-06-11T03:53:45.300Z,14.03
2023-06-11T03:56:11.985Z,14.11
2023-06-11T03:58:38.701Z,14.22
2023-06-11T04:01:05.519Z,14.25
2023-06-11T04:03:32.317Z,14.04
2023-06-11T04:05:59.179Z,14.11
2023-06-11T04:08:26.245Z,14.13
2023-06-11T04:10:53.523Z,13.93
2023-06-11T04:13:20.416Z,14.06
2023-06-11T04:15:47.133Z,14.14
2023-06-11T04:18:13.920Z,14.19
2023-06-11T04:20:40.723Z,14.44
2023-06-11T04:23:07.826Z,14.20
2023-06-11T04:25:37.625Z,13.99
2023-06-11T04:28:04.557Z,14.09
2023-06-11T04:30:32.699Z,14.11
2023-06-11T04:32:59.644Z,14.39
2023-06-11T04:35:26.450Z,14.53
2023-06-11T04:37:53.939Z,14.55
2023-06-11T04:40:20.721Z,14.57
2023-06-11T04:42:47.580Z,14.59
2023-06-11T04:45:14.431Z,14.55
2023-06-11T04:47:41.898Z,14.65
2023-06-11T04:50:09.232Z,14.69
2023-06-11T04:52:44.180Z,14.65
2023-06-11T04:55:14.424Z,14.49
2023-06-11T04:57:41.580Z,14.50
2023-06-11T05:00:10.098Z,14.57
2023-06-11T05:02:38.835Z,14.38
2023-06-11T05:05:06.867Z,14.36
2023-06-11T05:07:34.122Z,14.39
2023-06-11T05:10:01.148Z,14.44
2023-06-11T05:12:27.921Z,14.58
2023-06-11T05:14:54.565Z,14.74
2023-06-11T05:17:21.379Z,14.95
2023-06-11T05:19:48.212Z,15.19
2023-06-11T05:22:14.881Z,15.21
2023-06-11T05:24:44.022Z,15.11
2023-06-11T05:27:10.846Z,15.08
2023-06-11T05:29:39.134Z,15.17
2023-06-11T05:32:06.873Z,15.23
2023-06-11T05:34:34.388Z,15.53
2023-06-11T05:37:02.285Z,15.43
2023-06-11T05:39:29.056Z,15.95
2023-06-11T05:41:55.856Z,15.92
2023-06-11T05:44:22.585Z,15.46
2023-06-11T05:46:49.333Z,15.11
2023-06-11T05:49:16.065Z,15.17
2023-06-11T05:51:42.775Z,15.74
2023-06-11T05:54:09.428Z,16.08
2023-06-11T05:56:36.144Z,16.28
2023-06-11T05:59:02.914Z,16.16
2023-06-11T06:01:29.814Z,16.41
2023-06-11T06:03:56.716Z,16.44
2023-06-11T06:06:23.575Z,16.72
2023-06-11T06:08:50.239Z,16.86
2023-06-11T06:11:17.025Z,17.32
2023-06-11T06:13:44.563Z,17.38
2023-06-11T06:16:11.414Z,17.27
2023-06-11T06:18:40.107Z,17.35
2023-06-11T06:21:06.981Z,17.65
2023-06-11T06:23:33.769Z,17.70
2023-06-11T06:26:00.516Z,17.69
2023-06-11T06:28:27.264Z,17.59
2023-06-11T06:30:54.066Z,17.67
2023-06-11T06:33:20.886Z,17.83
2023-06-11T06:35:47.667Z,17.97
2023-06-11T06:38:14.497Z,18.08
2023-06-11T06:40:41.462Z,18.14
2023-06-11T06:43:08.273Z,18.21
2023-06-11T06:45:36.118Z,18.34
2023-06-11T06:48:03.192Z,18.26
2023-06-11T06:50:30.180Z,18.50
2023-06-11T06:52:56.829Z,18.41
2023-06-11T06:55:23.551Z,18.60
2023-06-11T06:57:50.286Z,18.18
2023-06-11T07:00:18.679Z,18.02
2023-06-11T07:02:45.521Z,18.16
2023-06-11T07:05:12.598Z,18.53
2023-06-11T07:07:41.734Z,18.57
2023-06-11T07:10:10.809Z,18.68
2023-06-11T07:12:37.804Z,18.72
2023-06-11T07:15:05.376Z,19.00
2023-06-11T07:17:32.235Z,19.12
2023-06-11T07:19:59.127Z,19.27
2023-06-11T07:22:25.848Z,19.18
2023-06-11T07:24:52.609Z,19.36
2023-06-11T07:27:19.299Z,19.07
2023-06-11T07:29:45.975Z,19.43
2023-06-11T07:32:12.688Z,19.40
2023-06-11T07:34:40.347Z,19.55
2023-06-11T07:37:07.281Z,19.23
2023-06-11T07:39:34.246Z,19.28
2023-06-11T07:42:00.978Z,19.76
2023-06-11T07:44:27.798Z,19.98
2023-06-11T07:46:54.487Z,20.07
2023-06-11T07:49:21.207Z,20.46
2023-06-11T07:51:47.936Z,20.06
2023-06-11T07:54:14.732Z,20.20
2023-06-11T07:56:41.537Z,20.37
2023-06-11T07:59:08.270Z,20.57
2023-06-11T08:01:35.049Z,20.75
2023-06-11T08:04:01.825Z,20.90
2023-06-11T08:06:28.773Z,21.02
2023-06-11T08:08:57.477Z,21.54
2023-06-11T08:11:24.291Z,21.29
2023-06-11T08:13:51.055Z,21.11
2023-06-11T08:16:18.912Z,21.25
2023-06-11T08:18:45.601Z,21.77
2023-06-11T08:21:12.386Z,21.36
2023-06-11T08:23:39.970Z,20.85
2023-06-11T08:26:06.787Z,20.86
2023-06-11T08:28:33.520Z,21.03
2023-06-11T08:31:00.278Z,21.17
2023-06-11T08:33:27.076Z,20.85
2023-06-11T08:35:53.866Z,21.47
2023-06-11T08:38:20.607Z,21.82
2023-06-11T08:40:47.312Z,21.51
2023-06-11T08:43:14.149Z,21.85
2023-06-11T08:45:41.626Z,21.75
2023-06-11T08:48:08.592Z,22.30
2023-06-11T08:50:35.404Z,22.66
2023-06-11T08:53:03.786Z,23.16
2023-06-11T08:55:30.738Z,23.61
2023-06-11T08:57:57.765Z,23.34
2023-06-11T09:00:24.511Z,23.91
2023-06-11T09:02:51.328Z,23.27
2023-06-11T09:05:18.152Z,23.47
2023-06-11T09:07:51.609Z,23.64
2023-06-11T09:10:18.405Z,23.85
2023-06-11T09:12:45.511Z,23.97
2023-06-11T09:15:13.612Z,23.98
2023-06-11T09:17:44.610Z,23.42
2023-06-11T09:20:13.209Z,23.32
2023-06-11T09:22:41.574Z,23.45
2023-06-11T09:25:12.602Z,23.82
2023-06-11T09:27:40.094Z,23.73
2023-06-11T09:30:27.867Z,24.28
2023-06-11T09:32:54.695Z,23.72
2023-06-11T09:35:22.487Z,24.39
2023-06-11T09:37:51.634Z,24.98
2023-06-11T09:40:20.715Z,25.02
2023-06-11T09:42:48.604Z,25.01
2023-06-11T09:45:17.508Z,25.33
2023-06-11T09:47:46.242Z,25.62
2023-06-11T09:50:19.480Z,25.91
2023-06-11T09:52:46.530Z,26.38
2023-06-11T09:55:13.664Z,26.32
2023-06-11T09:57:41.471Z,26.49
2023-06-11T10:00:11.332Z,26.70
2023-06-11T10:02:41.856Z,26.61
2023-06-11T10:05:09.746Z,26.69
2023-06-11T10:07:47.476Z,26.78
2023-06-11T10:10:17.125Z,26.72
2023-06-11T10:12:52.350Z,26.69
2023-06-11T10:15:19.819Z,26.24
2023-06-11T10:17:50.863Z,26.52
2023-06-11T10:20:28.585Z,26.75
2023-06-11T10:23:11.001Z,26.92
2023-06-11T10:25:40.940Z,27.01
2023-06-11T10:28:08.708Z,27.10
2023-06-11T10:30:35.634Z,26.98
2023-06-11T10:33:02.420Z,27.12
2023-06-11T10:35:33.842Z,27.26
2023-06-11T10:38:07.250Z,26.63
2023-06-11T10:40:38.000Z,26.97
2023-06-11T10:43:20.696Z,27.25
2023-06-11T10:45:49.896Z,27.07
2023-06-11T10:48:18.742Z,27.25
2023-06-11T10:50:45.446Z,27.41
2023-06-11T10:53:14.582Z,27.37
2023-06-11T10:55:45.196Z,27.35
2023-06-11T10:58:24.253Z,27.64
2023-06-11T11:00:52.925Z,27.69
2023-06-11T11:03:22.998Z,27.29
2023-06-11T11:05:53.548Z,27.20
2023-06-11T11:08:24.874Z,27.49
2023-06-11T11:10:56.813Z,28.08
2023-06-11T11:13:23.952Z,27.59
2023-06-11T11:15:51.488Z,27.36
2023-06-11T11:18:18.385Z,27.58
2023-06-11T11:20:46.058Z,27.76
2023-06-11T11:23:12.766Z,28.29
2023-06-11T11:25:40.086Z,28.62
2023-06-11T11:28:07.122Z,28.94
2023-06-11T11:30:33.898Z,28.39
2023-06-11T11:33:00.748Z,27.91
2023-06-11T11:35:29.880Z,27.58
2023-06-11T11:37:56.684Z,27.89
2023-06-11T11:40:23.506Z,28.08
2023-06-11T11:42:51.208Z,28.52
2023-06-11T11:45:18.666Z,28.14
2023-06-11T11:47:47.666Z,27.90
2023-06-11T11:50:35.924Z,28.06
2023-06-11T11:53:07.487Z,28.72
2023-06-11T11:55:51.589Z,29.14
2023-06-11T11:58:23.317Z,28.53
2023-06-11T12:00:52.058Z,28.45
2023-06-11T12:03:22.537Z,28.62
2023-06-11T12:06:16.115Z,27.63
2023-06-11T12:08:43.059Z,26.69
2023-06-11T12:11:09.814Z,26.09
2023-06-11T12:13:36.647Z,26.07
2023-06-11T12:16:05.220Z,26.78
2023-06-11T12:18:33.573Z,26.82
2023-06-11T12:21:00.268Z,26.07
2023-06-11T12:23:27.200Z,25.59
2023-06-11T12:25:54.021Z,25.53
2023-06-11T12:28:21.248Z,26.00
2023-06-11T12:30:48.021Z,26.07
2023-06-11T12:33:17.098Z,26.49
2023-06-11T12:35:45.380Z,26.11
2023-06-11T12:38:12.266Z,26.16
2023-06-11T12:40:38.858Z,26.15
2023-06-11T12:43:05.529Z,25.58
2023-06-11T12:45:36.765Z,25.62
2023-06-11T12:48:04.074Z,25.85
2023-06-11T12:50:30.918Z,25.75
2023-06-11T12:52:57.962Z,26.41
2023-06-11T12:55:25.778Z,26.79
2023-06-11T12:57:52.696Z,26.91
2023-06-11T13:00:19.856Z,26.91
2023-06-11T13:02:46.617Z,27.02
2023-06-11T13:05:13.659Z,27.58
2023-06-11T13:07:40.504Z,26.67
2023-06-11T13:10:07.616Z,27.03
2023-06-11T13:12:34.444Z,26.87
2023-06-11T13:15:01.208Z,27.08
2023-06-11T13:17:28.212Z,27.00
2023-06-11T13:19:58.579Z,27.19
2023-06-11T13:22:25.453Z,27.04
2023-06-11T13:24:52.902Z,27.32
2023-06-11T13:27:19.716Z,27.02
2023-06-11T13:29:46.730Z,26.52
2023-06-11T13:32:13.577Z,26.51
2023-06-11T13:34:40.414Z,26.00
2023-06-11T13:37:07.529Z,25.83
2023-06-11T13:39:34.490Z,25.64
2023-06-11T13:42:01.711Z,25.44
2023-06-11T13:44:28.658Z,25.19
2023-06-11T13:46:55.645Z,25.07
2023-06-11T13:49:24.161Z,24.90
2023-06-11T13:51:51.953Z,25.26
2023-06-11T13:54:21.577Z,25.54
2023-06-11T13:56:48.347Z,25.68
2023-06-11T13:59:15.054Z,25.67
2023-06-11T14:01:41.832Z,25.88
2023-06-11T14:04:11.613Z,26.33
2023-06-11T14:06:38.241Z,26.21
2023-06-11T14:09:05.469Z,26.25
2023-06-11T14:11:32.358Z,26.56
2023-06-11T14:13:59.548Z,27.40
2023-06-11T14:16:26.727Z,27.61
2023-06-11T14:18:53.593Z,27.82
2023-06-11T14:21:20.453Z,27.53
2023-06-11T14:23:47.782Z,26.85
2023-06-11T14:26:14.502Z,26.53
2023-06-11T14:28:41.086Z,26.10
2023-06-11T14:31:07.812Z,25.58
2023-06-11T14:33:34.509Z,25.35
2023-06-11T14:36:06.038Z,24.99
2023-06-11T14:38:36.033Z,24.70
2023-06-11T14:41:02.775Z,24.49
2023-06-11T14:43:29.540Z,24.56
2023-06-11T14:45:56.282Z,24.34
2023-06-11T14:48:23.064Z,24.45
2023-06-11T14:50:49.745Z,24.10
2023-06-11T14:53:16.482Z,24.19
2023-06-11T14:55:44.019Z,24.36
2023-06-11T14:58:10.788Z,24.26
2023-06-11T15:00:37.473Z,24.03
2023-06-11T15:03:04.261Z,23.99
2023-06-11T15:05:31.078Z,23.91
2023-06-11T15:07:57.793Z,23.93
2023-06-11T15:10:25.291Z,23.86
2023-06-11T15:12:52.114Z,23.65
2023-06-11T15:15:18.962Z,23.56
2023-06-11T15:17:45.789Z,23.65
2023-06-11T15:20:12.853Z,23.64
2023-06-11T15:22:41.701Z,23.25
2023-06-11T15:25:10.312Z,23.19
2023-06-11T15:27:37.161Z,23.31
2023-06-11T15:30:04.966Z,22.79
2023-06-11T15:32:31.839Z,23.06
2023-06-11T15:34:58.793Z,23.42
2023-06-11T15:37:25.578Z,23.44
2023-06-11T15:39:52.404Z,23.31
2023-06-11T15:42:19.472Z,23.20
2023-06-11T15:44:46.437Z,23.44
2023-06-11T15:47:13.301Z,22.72
2023-06-11T15:49:40.053Z,22.52
2023-06-11T15:52:07.248Z,22.26
2023-06-11T15:54:34.364Z,22.27
2023-06-11T15:57:01.732Z,22.66
2023-06-11T15:59:28.598Z,22.87
2023-06-11T16:01:55.399Z,22.83
2023-06-11T16:04:24.456Z,22.59
2023-06-11T16:06:51.258Z,22.74
2023-06-11T16:09:18.073Z,22.67
2023-06-11T16:11:44.874Z,22.64
2023-06-11T16:14:11.764Z,22.37
2023-06-11T16:16:38.733Z,22.46
2023-06-11T16:19:05.668Z,22.58
2023-06-11T16:21:32.455Z,22.41
2023-06-11T16:23:59.273Z,22.52
2023-06-11T16:26:26.958Z,22.47
2023-06-11T16:28:56.314Z,22.53
2023-06-11T16:31:23.431Z,22.40
2023-06-11T16:33:58.430Z,22.69
2023-06-11T16:36:27.114Z,22.48
2023-06-11T16:38:53.847Z,22.50
2023-06-11T16:41:22.050Z,22.40
2023-06-11T16:43:52.113Z,22.42
2023-06-11T16:46:19.336Z,22.29
2023-06-11T16:48:47.014Z,22.47
2023-06-11T16:51:14.245Z,21.96
2023-06-11T16:53:42.111Z,22.02
2023-06-11T16:56:08.772Z,21.92
2023-06-11T16:58:35.862Z,22.12
2023-06-11T17:01:02.642Z,22.03
2023-06-11T17:03:29.354Z,21.88
2023-06-11T17:05:56.149Z,22.07
2023-06-11T17:08:22.917Z,21.94
2023-06-11T17:10:49.631Z,21.93
2023-06-11T17:13:16.349Z,21.72
2023-06-11T17:15:43.007Z,22.00
2023-06-11T17:18:09.748Z,21.54
2023-06-11T17:20:40.611Z,21.11
2023-06-11T17:23:11.434Z,21.50
2023-06-11T17:25:38.135Z,21.64
2023-06-11T17:28:05.053Z,21.69
2023-06-11T17:30:31.970Z,21.55
2023-06-11T17:33:00.576Z,21.13
2023-06-11T17:35:27.936Z,21.00
2023-06-11T17:37:56.656Z,21.32
2023-06-11T17:40:28.656Z,21.19
2023-06-11T17:42:58.813Z,21.04
2023-06-11T17:45:26.764Z,21.21
2023-06-11T17:47:54.711Z,21.03
2023-06-11T17:50:21.803Z,21.08
2023-06-11T17:52:48.494Z,20.93
2023-06-11T17:55:15.580Z,21.12
2023-06-11T17:57:46.786Z,21.31
2023-06-11T18:00:14.854Z,21.11
2023-06-11T18:02:41.997Z,21.04
2023-06-11T18:05:09.288Z,21.19
2023-06-11T18:07:36.561Z,21.19
2023-06-11T18:10:03.842Z,21.13
2023-06-11T18:12:30.900Z,21.03
2023-06-11T18:14:57.507Z,21.11
2023-06-11T18:17:25.515Z,21.00
2023-06-11T18:19:52.475Z,21.08
2023-06-11T18:22:24.374Z,21.04
2023-06-11T18:24:51.244Z,20.98
2023-06-11T18:27:18.004Z,20.71
2023-06-11T18:29:44.858Z,20.78
2023-06-11T18:32:11.922Z,20.70
2023-06-11T18:34:38.757Z,20.58
2023-06-11T18:37:05.905Z,20.37
2023-06-11T18:39:32.696Z,20.31
2023-06-11T18:42:01.725Z,20.42
2023-06-11T18:44:28.593Z,20.24
2023-06-11T18:47:01.631Z,20.31
2023-06-11T18:49:29.786Z,19.88
2023-06-11T18:51:56.486Z,19.70
2023-06-11T18:54:23.286Z,19.51
2023-06-11T18:56:50.020Z,19.63
2023-06-11T18:59:18.634Z,19.86
2023-06-11T19:01:45.418Z,19.54
2023-06-11T19:04:12.412Z,19.55
2023-06-11T19:06:39.187Z,19.76
2023-06-11T19:09:06.026Z,19.78
2023-06-11T19:11:32.702Z,19.98
2023-06-11T19:13:59.415Z,19.93
2023-06-11T19:16:26.208Z,19.90
2023-06-11T19:18:52.917Z,19.81
2023-06-11T19:21:24.042Z,19.49
2023-06-11T19:23:50.835Z,19.54
2023-06-11T19:26:17.689Z,19.52
2023-06-11T19:28:44.399Z,19.57
2023-06-11T19:31:11.137Z,19.55
2023-06-11T19:33:38.792Z,19.40
2023-06-11T19:36:05.825Z,19.57
2023-06-11T19:38:32.682Z,19.41
2023-06-11T19:40:59.299Z,19.36
2023-06-11T19:43:26.183Z,19.30
2023-06-11T19:45:52.964Z,19.39
2023-06-11T19:48:22.087Z,19.26
2023-06-11T19:50:48.923Z,19.13
2023-06-11T19:53:15.749Z,19.25
2023-06-11T19:55:45.266Z,19.18
2023-06-11T19:58:12.134Z,19.00
2023-06-11T20:00:38.769Z,18.97
2023-06-11T20:03:05.523Z,18.80
2023-06-11T20:05:33.642Z,18.72
2023-06-11T20:08:02.228Z,18.40
2023-06-11T20:10:30.198Z,18.41
2023-06-11T20:12:56.853Z,18.58
2023-06-11T20:15:23.530Z,18.47
2023-06-11T20:17:50.396Z,18.41
2023-06-11T20:20:17.262Z,18.34
2023-06-11T20:22:43.878Z,18.45
2023-06-11T20:25:10.649Z,18.48
2023-06-11T20:27:37.580Z,18.42
2023-06-11T20:30:04.589Z,18.43
2023-06-11T20:32:31.430Z,18.23
2023-06-11T20:34:58.087Z,18.03
2023-06-11T20:37:24.815Z,17.84
2023-06-11T20:39:51.565Z,17.37
2023-06-11T20:42:18.452Z,17.56
2023-06-11T20:44:45.163Z,17.61
2023-06-11T20:47:12.244Z,17.73
2023-06-11T20:49:39.088Z,17.86
2023-06-11T20:52:06.527Z,17.99
2023-06-11T20:54:33.262Z,17.94
2023-06-11T20:56:59.891Z,17.72
2023-06-11T20:59:26.555Z,17.52
2023-06-11T21:01:53.366Z,17.51
2023-06-11T21:04:20.207Z,17.24
2023-06-11T21:06:46.950Z,17.21
2023-06-11T21:09:13.610Z,17.28
2023-06-11T21:11:40.309Z,17.16
2023-06-11T21:14:14.093Z,16.72
2023-06-11T21:16:41.721Z,16.67
2023-06-11T21:19:08.468Z,15.94
2023-06-11T21:21:35.305Z,15.83
2023-06-11T21:24:03.612Z,15.65
2023-06-11T21:26:30.463Z,15.47
2023-06-11T21:28:57.810Z,15.28
2023-06-11T21:31:24.666Z,15.06
2023-06-11T21:33:51.354Z,15.33
2023-06-11T21:36:18.357Z,15.75
2023-06-11T21:38:45.013Z,16.02
2023-06-11T21:41:11.733Z,16.07
2023-06-11T21:43:38.440Z,16.25
2023-06-11T21:46:05.197Z,16.30
2023-06-11T21:48:31.906Z,15.77
2023-06-11T21:50:58.570Z,15.69
2023-06-11T21:53:25.387Z,15.94
2023-06-11T21:55:52.150Z,15.93
2023-06-11T21:58:18.848Z,15.85
2023-06-11T22:00:45.847Z,16.03
2023-06-11T22:03:15.422Z,16.04
2023-06-11T22:05:42.145Z,15.63
2023-06-11T22:08:08.859Z,15.85
2023-06-11T22:10:35.500Z,15.55
2023-06-11T22:13:02.158Z,15.50
2023-06-11T22:15:28.882Z,15.39
2023-06-11T22:17:55.678Z,15.56
2023-06-11T22:20:26.415Z,15.34
2023-06-11T22:22:53.167Z,15.44
2023-06-11T22:25:19.900Z,15.71
2023-06-11T22:27:47.170Z,15.80
2023-06-11T22:30:14.306Z,15.67
2023-06-11T22:32:41.384Z,15.58
2023-06-11T22:35:08.631Z,15.48
2023-06-11T22:37:37.288Z,15.18
2023-06-11T22:40:06.079Z,15.14
2023-06-11T22:42:33.281Z,14.84
2023-06-11T22:44:59.943Z,14.91
2023-06-11T22:47:30.121Z,14.89
2023-06-11T22:49:57.564Z,14.64
2023-06-11T22:52:24.355Z,14.80
2023-06-11T22:54:51.121Z,15.02
2023-06-11T22:57:17.749Z,14.92
2023-06-11T22:59:44.422Z,15.20
2023-06-11T23:02:11.251Z,15.34
2023-06-11T23:04:40.441Z,15.17
2023-06-11T23:07:07.772Z,14.95
2023-06-11T23:09:34.466Z,14.84
2023-06-11T23:12:01.415Z,14.76
2023-06-11T23:14:28.185Z,15.02
2023-06-11T23:16:59.540Z,15.16
2023-06-11T23:19:26.906Z,15.18
2023-06-11T23:21:57.492Z,14.99
2023-06-11T23:24:27.674Z,14.94
2023-06-11T23:26:57.606Z,14.65
2023-06-11T23:29:24.910Z,14.26
2023-06-11T23:31:51.854Z,14.34
2023-06-11T23:34:18.768Z,14.32
2023-06-11T23:36:45.858Z,14.39
2023-06-11T23:39:12.616Z,14.60
2023-06-11T23:41:39.412Z,15.03
2023-06-11T23:44:06.244Z,14.74
2023-06-11T23:46:36.568Z,14.68
2023-06-11T23:49:03.548Z,14.50
2023-06-11T23:51:31.251Z,14.36
2023-06-11T23:53:58.500Z,14.13
2023-06-11T23:56:25.763Z,14.11
2023-06-11T23:58:52.452Z,13.84
